Lower Bayble, United Kingdom

12:46 PM GMT on December 12, 2018 (GMT +0000)
Sheshader | | Change Station

Elev 148 ft 58.23 °N, 6.17 °W | Updated 2 seconds ago

Light Rain
Light Rain
49.8 °F
Feels Like 44 °F
N
16
Wind Variable Wind from SSE
Gusts 22.0 mph

Today
High -- | Low -- °F
--% Chance of Precip.
Yesterday
High -- | Low -- °F
Precip. -- in
Pressure 29.92 in
Visibility 6.2 miles
Clouds Few 1600 ft
Mostly Cloudy 2500 ft
Windchill 44 °F
Dew Point 46 °F
Humidity 88%
Rainfall 0.00 in
Snow Depth Not available.
9:02 AM 3:34 PM
Waxing Crescent, 24% visible
METAR EGPO 121220Z 15013KT 9999 -RA FEW016 BKN025 10/07 Q1013
Pressure 29.92 in
Visibility 6.2 miles
Clouds Few 1600 ft
Mostly Cloudy 2500 ft
Windchill 44 °F
Dew Point 46 °F
Humidity 88%
Rainfall 0.00 in
Snow Depth Not available.
9:02 AM 3:34 PM
Waxing Crescent, 24% visible
METAR EGPO 121220Z 15013KT 9999 -RA FEW016 BKN025 10/07 Q1013

Get Severe Weather Alerts

Thanks for signing up!

Be on the lookout for a verification email in your inbox.

You'll start receiving the daily forecast at 6 AM.

×

10-Day Weather Forecast

×

Almanac

Astronomy

Dec. 12, 2018 Rise Set
Actual Time
Civil Twilight
Nautical Twilight
Astronomical Twilight
Moon
Length of Visible Light
Length of Day
Tomorrow will be .
, % of the Moon is Illuminated

Today's Extremes

Country Highs Country Lows

Community

WunderPhotos

Category 6

Welcome to Category 6. This is the collective home for Weather Underground's featured writeups by Dr. Jeff Masters (right), Bob Henson (left), Chris Burt, and other regular contributors.

Nearby

Air Quality

  Air Quality AQ Index Pollutant
Not available.

Snow Depth

Station Depth Elevation

Earthquake Activity

City Distance Mag. Time & Date
Minimum magnitude displayed is 2.5.

Coastal Water Temperatures

Place Temperature

Stations

Nearby Weather Stations

Station Location Temp. Windchill Dew Point Humidity Wind Precip. Elev Updated Type